Airfield :
LOGIN :

Register | Disclaimer

   EN    FR    IT 

 










Legend :    VFR   Marginal VFR   IFR   Intensive IFR   Very Intensive IFR
Visi :
Ceiling :
>= 8 km
>= 3000ft
5 to 8 km
1000 to 3000 ft
1500m to 5 km
500 to 1000 ft
800 to 1500m
200 to 500 ft
< 800m
< 200 ft
Symbols :   Thunderstorms  Fog  Heavy snow  Heavy precipitations  Wind > 20 kt
SIGMETs :     Misc.  Thunderstorms  Icing  Turbulence  Mountain Waves  Volcanic Ashes







- Airport Elevation : 158 ft
- IATA code : QAR


EHDL - Deelen Airbase

CURRENT METAR :
  • 220655Z AUTO 36007KT //// // BKN036 BKN041 OVC076 12/10 Q1029 RE//

EXPIRED METARs :
  • 220625Z AUTO 35008KT 320V040 9999 FEW044 BKN052 BKN059 12/11 Q1029 BLU
  • 220555Z AUTO 36012KT 320V040 9999 BKN032 OVC036 12/11 Q1028 BLU
  • 220525Z AUTO 35009KT 320V030 9999 FEW008 SCT011 OVC025 12/11 Q1028 REDZ GRN
  • 220455Z AUTO 35011KT 330V040 5000 -DZ SCT005 BKN007 BKN008 12/11 Q1028 REDZ YLO
  • 220425Z AUTO 34008KT 310V010 2800 DZ SCT003 BKN005 OVC006 12/12 Q1027 YLO

Expired Forecast.
No reported NOTAMs for that airfield.



MET'MAP, your aeronautical weather chart ! - Copyright ORBIFLY December 2007 - Disclaimer

ORBIFLY MET'MAP TEAM :

Programming & Development : Alexandra Zaïnal
Concept & Development : Baudouin d'Aumeries
Co-Development & Prog : Marc-Olivier Méhu
Technical & hardware support : Manuel Goepfert

Contact : metmap@orbifly.com




SOURCES & CREDITS :

   NOAA